createdAt,value
2022-11-15T00:00:29.141Z,100866.94
2022-11-15T00:02:55.984Z,100872.28
2022-11-15T00:05:22.554Z,100871.53
2022-11-15T00:07:55.770Z,100860.34
2022-11-15T00:10:22.616Z,100860.75
2022-11-15T00:12:49.038Z,100858.25
2022-11-15T00:15:15.512Z,100860.03
2022-11-15T00:17:41.909Z,100860.53
2022-11-15T00:20:08.918Z,100856.28
2022-11-15T00:22:35.329Z,100854.94
2022-11-15T00:25:01.708Z,100858.00
2022-11-15T00:27:28.392Z,100858.47
2022-11-15T00:29:54.808Z,100863.59
2022-11-15T00:32:21.387Z,100866.75
2022-11-15T00:34:47.782Z,100859.84
2022-11-15T00:37:14.202Z,100861.97
2022-11-15T00:39:40.587Z,100868.88
2022-11-15T00:42:06.966Z,100867.97
2022-11-15T00:44:33.364Z,100862.81
2022-11-15T00:46:59.798Z,100868.78
2022-11-15T00:49:26.173Z,100868.78
2022-11-15T00:51:52.609Z,100875.28
2022-11-15T00:54:19.007Z,100869.63
2022-11-15T00:56:45.402Z,100859.28
2022-11-15T00:59:11.791Z,100869.31
2022-11-15T01:01:38.222Z,100861.38
2022-11-15T01:04:04.763Z,100866.84
2022-11-15T01:06:31.192Z,100861.25
2022-11-15T01:08:57.569Z,100860.13
2022-11-15T01:11:23.973Z,100854.41
2022-11-15T01:13:50.371Z,100858.72
2022-11-15T01:16:19.236Z,100851.44
2022-11-15T01:18:46.600Z,100853.41
2022-11-15T01:21:15.890Z,100856.63
2022-11-15T01:23:42.461Z,100857.72
2022-11-15T01:26:12.163Z,100848.88
2022-11-15T01:28:39.527Z,100845.72
2022-11-15T01:31:13.113Z,100849.19
2022-11-15T01:33:39.607Z,100843.75
2022-11-15T01:36:07.361Z,100845.38
2022-11-15T01:38:34.160Z,100839.69
2022-11-15T01:41:00.780Z,100833.28
2022-11-15T01:43:32.838Z,100835.63
2022-11-15T01:46:03.281Z,100821.72
2022-11-15T01:48:33.575Z,100818.69
2022-11-15T01:51:02.258Z,100821.72
2022-11-15T01:53:31.235Z,100825.28
2022-11-15T01:55:58.628Z,100817.81
2022-11-15T01:58:25.222Z,100812.88
2022-11-15T02:00:52.755Z,100810.72
2022-11-15T02:03:19.460Z,100803.72
2022-11-15T02:05:45.941Z,100796.66
2022-11-15T02:08:20.718Z,100800.94
2022-11-15T02:10:48.000Z,100799.94
2022-11-15T02:13:16.189Z,100798.06
2022-11-15T02:15:59.043Z,100801.28
2022-11-15T02:18:33.731Z,100801.63
2022-11-15T02:21:08.183Z,100802.91
2022-11-15T02:23:54.205Z,100809.53
2022-11-15T02:26:45.134Z,100800.41
2022-11-15T02:29:15.627Z,100793.94
2022-11-15T02:31:58.444Z,100785.69
2022-11-15T02:34:34.133Z,100781.81
2022-11-15T02:37:20.752Z,100784.63
2022-11-15T02:39:52.865Z,100783.63
2022-11-15T02:42:42.960Z,100785.63
2022-11-15T02:45:11.248Z,100794.00
2022-11-15T02:47:44.475Z,100794.00
2022-11-15T02:50:17.572Z,100786.97
2022-11-15T02:52:47.665Z,100781.47
2022-11-15T02:55:35.973Z,100779.81
2022-11-15T02:58:27.082Z,100781.16
2022-11-15T03:01:14.827Z,100780.47
2022-11-15T03:03:47.471Z,100783.13
2022-11-15T03:06:39.961Z,100786.00
2022-11-15T03:09:12.260Z,100779.97
2022-11-15T03:11:42.736Z,100777.97
2022-11-15T03:14:19.627Z,100776.88
2022-11-15T03:16:52.446Z,100781.13
2022-11-15T03:19:46.704Z,100783.28
2022-11-15T03:22:19.058Z,100770.59
2022-11-15T03:24:48.449Z,100773.16
2022-11-15T03:27:18.973Z,100781.22
2022-11-15T03:29:48.364Z,100780.38
2022-11-15T03:32:20.497Z,100775.69
2022-11-15T03:35:15.740Z,100772.47
2022-11-15T03:37:55.673Z,100768.75
2022-11-15T03:40:30.707Z,100772.28
2022-11-15T03:43:05.715Z,100766.63
2022-11-15T03:45:45.938Z,100766.19
2022-11-15T03:48:15.976Z,100769.09
2022-11-15T03:50:43.665Z,100759.47
2022-11-15T03:53:10.441Z,100768.91
2022-11-15T03:55:36.826Z,100761.28
2022-11-15T03:58:03.270Z,100762.03
2022-11-15T04:00:30.061Z,100756.41
2022-11-15T04:02:56.822Z,100752.53
2022-11-15T04:05:23.282Z,100757.22
2022-11-15T04:07:49.712Z,100759.91
2022-11-15T04:10:16.614Z,100754.44
2022-11-15T04:12:44.883Z,100756.44
2022-11-15T04:15:19.958Z,100750.31
2022-11-15T04:17:57.215Z,100752.97
2022-11-15T04:20:47.274Z,100753.56
2022-11-15T04:23:40.055Z,100745.09
2022-11-15T04:26:12.286Z,100749.19
2022-11-15T04:28:57.811Z,100760.59
2022-11-15T04:31:24.321Z,100759.41
2022-11-15T04:33:50.866Z,100754.72
2022-11-15T04:36:35.860Z,100758.66
2022-11-15T04:39:02.305Z,100770.44
2022-11-15T04:41:30.027Z,100758.63
2022-11-15T04:43:56.494Z,100764.44
2022-11-15T04:46:24.655Z,100764.69
2022-11-15T04:48:56.944Z,100765.50
2022-11-15T04:51:24.910Z,100754.47
2022-11-15T04:53:51.337Z,100757.59
2022-11-15T04:56:17.733Z,100757.41
2022-11-15T04:58:44.202Z,100758.88
2022-11-15T05:01:15.695Z,100766.06
2022-11-15T05:04:01.280Z,100762.84
2022-11-15T05:06:27.743Z,100753.97
2022-11-15T05:08:54.477Z,100761.13
2022-11-15T05:11:21.526Z,100762.41
2022-11-15T05:13:47.956Z,100770.34
2022-11-15T05:16:14.417Z,100764.56
2022-11-15T05:18:41.655Z,100763.94
2022-11-15T05:21:10.626Z,100759.94
2022-11-15T05:23:37.170Z,100756.53
2022-11-15T05:26:09.015Z,100763.59
2022-11-15T05:28:37.302Z,100764.69
2022-11-15T05:31:04.846Z,100754.38
2022-11-15T05:33:32.078Z,100759.84
2022-11-15T05:36:06.391Z,100755.75
2022-11-15T05:38:32.796Z,100749.25
2022-11-15T05:41:00.904Z,100754.78
2022-11-15T05:43:28.268Z,100751.78
2022-11-15T05:45:54.751Z,100761.75
2022-11-15T05:48:21.186Z,100756.63
2022-11-15T05:50:48.565Z,100753.63
2022-11-15T05:53:17.189Z,100754.88
2022-11-15T05:55:43.688Z,100755.84
2022-11-15T05:58:10.391Z,100748.78
2022-11-15T06:00:36.843Z,100749.66
2022-11-15T06:03:03.326Z,100755.00
2022-11-15T06:05:29.747Z,100758.34
2022-11-15T06:07:59.949Z,100751.44
2022-11-15T06:10:26.555Z,100752.22
2022-11-15T06:13:03.065Z,100749.88
2022-11-15T06:15:29.502Z,100755.84
2022-11-15T06:18:00.048Z,100752.53
2022-11-15T06:20:27.948Z,100764.44
2022-11-15T06:23:02.427Z,100760.25
2022-11-15T06:25:29.619Z,100764.97
2022-11-15T06:27:57.654Z,100765.31
2022-11-15T06:30:24.761Z,100763.81
2022-11-15T06:32:51.174Z,100762.94
2022-11-15T06:35:17.912Z,100767.88
2022-11-15T06:37:44.395Z,100773.31
2022-11-15T06:40:11.392Z,100767.09
2022-11-15T06:42:37.785Z,100764.22
2022-11-15T06:45:04.583Z,100773.75
2022-11-15T06:47:31.075Z,100776.44
2022-11-15T06:49:57.523Z,100771.06
2022-11-15T06:52:23.951Z,100769.91
2022-11-15T06:54:50.350Z,100760.66
2022-11-15T06:57:16.727Z,100772.66
2022-11-15T06:59:43.097Z,100775.13
2022-11-15T07:02:15.838Z,100773.41
2022-11-15T07:04:42.549Z,100775.66
2022-11-15T07:07:09.292Z,100780.72
2022-11-15T07:09:35.756Z,100786.94
2022-11-15T07:12:07.317Z,100786.06
2022-11-15T07:14:34.180Z,100791.97
2022-11-15T07:17:00.642Z,100786.38
2022-11-15T07:19:27.069Z,100784.09
2022-11-15T07:21:53.476Z,100784.63
2022-11-15T07:24:19.896Z,100790.72
2022-11-15T07:26:46.326Z,100791.34
2022-11-15T07:29:12.810Z,100783.88
2022-11-15T07:31:39.891Z,100784.84
2022-11-15T07:34:06.266Z,100784.50
2022-11-15T07:36:32.666Z,100778.56
2022-11-15T07:38:59.162Z,100780.81
2022-11-15T07:41:25.579Z,100791.22
2022-11-15T07:43:52.700Z,100788.94
2022-11-15T07:46:19.364Z,100774.72
2022-11-15T07:48:45.977Z,100776.81
2022-11-15T07:51:14.932Z,100783.16
2022-11-15T07:53:42.458Z,100780.28
2022-11-15T07:56:09.058Z,100780.06
2022-11-15T07:58:35.520Z,100778.50
2022-11-15T08:01:10.515Z,100772.25
2022-11-15T08:03:37.730Z,100775.69
2022-11-15T08:06:04.736Z,100777.19
2022-11-15T08:08:31.141Z,100786.75
2022-11-15T08:11:00.792Z,100782.88
2022-11-15T08:13:27.451Z,100793.09
2022-11-15T08:15:58.777Z,100789.81
2022-11-15T08:18:25.153Z,100787.44
2022-11-15T08:20:51.562Z,100773.38
2022-11-15T08:23:17.942Z,100783.91
2022-11-15T08:25:44.582Z,100784.50
2022-11-15T08:28:11.473Z,100788.06
2022-11-15T08:30:39.757Z,100780.63
2022-11-15T08:33:06.182Z,100785.84
2022-11-15T08:35:32.840Z,100796.75
2022-11-15T08:37:59.259Z,100783.91
2022-11-15T08:40:25.865Z,100793.59
2022-11-15T08:42:52.245Z,100789.56
2022-11-15T08:45:18.739Z,100780.03
2022-11-15T08:47:48.552Z,100787.78
2022-11-15T08:50:19.320Z,100783.91
2022-11-15T08:52:45.695Z,100779.44
2022-11-15T08:55:12.111Z,100786.59
2022-11-15T08:57:38.510Z,100778.47
2022-11-15T09:00:05.343Z,100777.75
2022-11-15T09:02:31.703Z,100787.47
2022-11-15T09:04:58.244Z,100785.22
2022-11-15T09:07:25.985Z,100788.63
2022-11-15T09:09:52.432Z,100796.53
2022-11-15T09:12:18.825Z,100794.59
2022-11-15T09:14:45.234Z,100789.78
2022-11-15T09:17:11.666Z,100796.69
2022-11-15T09:19:38.521Z,100793.13
2022-11-15T09:22:08.872Z,100788.19
2022-11-15T09:24:36.008Z,100795.34
2022-11-15T09:27:02.408Z,100792.50
2022-11-15T09:29:28.833Z,100794.00
2022-11-15T09:31:55.286Z,100795.22
2022-11-15T09:34:21.987Z,100787.75
2022-11-15T09:36:48.399Z,100790.41
2022-11-15T09:39:14.911Z,100793.09
2022-11-15T09:42:03.684Z,100794.31
2022-11-15T09:44:39.151Z,100783.06
2022-11-15T09:47:31.919Z,100781.28
2022-11-15T09:50:00.612Z,100776.53
2022-11-15T09:52:27.179Z,100778.91
2022-11-15T09:54:55.736Z,100778.28
2022-11-15T09:57:32.403Z,100773.44
2022-11-15T10:00:52.702Z,100773.38
2022-11-15T10:03:28.182Z,100784.97
2022-11-15T10:05:57.912Z,100781.28
2022-11-15T10:08:48.290Z,100788.09
2022-11-15T10:11:39.997Z,100779.38
2022-11-15T10:14:23.328Z,100758.50
2022-11-15T10:17:19.473Z,100774.06
2022-11-15T10:20:43.282Z,100766.63
2022-11-15T10:23:13.172Z,100762.84
2022-11-15T10:25:39.946Z,100752.59
2022-11-15T10:28:16.741Z,100764.34
2022-11-15T10:30:46.755Z,100761.22
2022-11-15T10:33:21.058Z,100757.78
2022-11-15T10:35:47.498Z,100748.50
2022-11-15T10:38:14.250Z,100755.13
2022-11-15T10:40:42.505Z,100741.88
2022-11-15T10:43:11.931Z,100740.03
2022-11-15T10:45:39.286Z,100735.28
2022-11-15T10:48:14.748Z,100734.81
2022-11-15T10:50:43.020Z,100727.47
2022-11-15T10:53:20.382Z,100719.91
2022-11-15T10:55:52.647Z,100717.88
2022-11-15T10:58:38.484Z,100713.78
2022-11-15T11:01:13.187Z,100707.00
2022-11-15T11:03:41.229Z,100703.97
2022-11-15T11:06:14.094Z,100710.38
2022-11-15T11:08:41.421Z,100704.22
2022-11-15T11:11:08.756Z,100700.13
2022-11-15T11:13:38.049Z,100695.81
2022-11-15T11:16:27.377Z,100692.25
2022-11-15T11:19:05.938Z,100691.28
2022-11-15T11:21:57.277Z,100682.34
2022-11-15T11:25:02.118Z,100678.22
2022-11-15T11:28:05.507Z,100681.28
2022-11-15T11:31:00.113Z,100679.78
2022-11-15T11:33:32.336Z,100678.59
2022-11-15T11:36:36.176Z,100676.63
2022-11-15T11:39:33.542Z,100671.06
2022-11-15T11:42:05.946Z,100668.97
2022-11-15T11:44:59.560Z,100666.59
2022-11-15T11:47:34.637Z,100669.28
2022-11-15T11:50:11.198Z,100665.31
2022-11-15T11:52:44.622Z,100656.16
2022-11-15T11:55:24.644Z,100659.03
2022-11-15T11:58:09.742Z,100666.22
2022-11-15T12:00:41.895Z,100666.94
2022-11-15T12:03:22.417Z,100668.59
2022-11-15T12:06:14.576Z,100669.00
2022-11-15T12:08:54.460Z,100670.38
2022-11-15T12:12:14.236Z,100663.53
2022-11-15T12:14:59.974Z,100668.88
2022-11-15T12:17:33.431Z,100657.84
2022-11-15T12:20:05.979Z,100660.50
2022-11-15T12:22:48.996Z,100651.78
2022-11-15T12:25:20.014Z,100652.97
2022-11-15T12:27:51.813Z,100641.78
2022-11-15T12:30:20.735Z,100632.75
2022-11-15T12:32:54.122Z,100626.53
2022-11-15T12:35:39.731Z,100628.44
2022-11-15T12:38:10.912Z,100619.16
2022-11-15T12:41:16.055Z,100609.19
2022-11-15T12:43:43.835Z,100618.19
2022-11-15T12:46:34.100Z,100613.28
2022-11-15T12:49:02.569Z,100614.16
2022-11-15T12:51:44.528Z,100609.25
2022-11-15T12:54:22.982Z,100610.84
2022-11-15T12:57:04.625Z,100605.38
2022-11-15T12:59:49.868Z,100600.41
2022-11-15T13:02:27.191Z,100599.25
2022-11-15T13:04:56.204Z,100596.94
2022-11-15T13:07:40.969Z,100597.94
2022-11-15T13:10:28.313Z,100591.88
2022-11-15T13:13:43.363Z,100586.16
2022-11-15T13:16:09.836Z,100587.06
2022-11-15T13:18:39.042Z,100580.31
2022-11-15T13:21:38.992Z,100580.75
2022-11-15T13:24:05.950Z,100579.66
2022-11-15T13:26:32.614Z,100579.50
2022-11-15T13:29:00.435Z,100576.06
2022-11-15T13:31:41.560Z,100579.84
2022-11-15T13:34:44.040Z,100578.56
2022-11-15T13:37:04.166Z,100588.75
2022-11-15T13:39:31.974Z,100588.38
2022-11-15T13:41:59.105Z,100587.84
2022-11-15T13:44:32.068Z,100581.22
2022-11-15T13:47:20.265Z,100580.84
2022-11-15T13:49:46.942Z,100573.22
2022-11-15T13:52:17.921Z,100574.41
2022-11-15T13:54:52.905Z,100582.78
2022-11-15T13:57:28.805Z,100578.00
2022-11-15T13:59:56.131Z,100579.41
2022-11-15T14:02:27.876Z,100574.97
2022-11-15T14:04:56.803Z,100572.91
2022-11-15T14:07:25.787Z,100573.66
2022-11-15T14:09:52.660Z,100570.28
2022-11-15T14:12:27.055Z,100562.50
2022-11-15T14:14:53.787Z,100568.81
2022-11-15T14:17:30.553Z,100565.16
2022-11-15T14:19:58.125Z,100567.03
2022-11-15T14:22:27.026Z,100563.53
2022-11-15T14:25:08.856Z,100564.91
2022-11-15T14:27:35.652Z,100558.28
2022-11-15T14:30:02.322Z,100552.53
2022-11-15T14:32:30.623Z,100554.03
2022-11-15T14:34:58.085Z,100542.53
2022-11-15T14:37:35.708Z,100544.28
2022-11-15T14:40:04.136Z,100554.72
2022-11-15T14:42:30.581Z,100543.81
2022-11-15T14:44:58.393Z,100548.25
2022-11-15T14:47:26.156Z,100550.47
2022-11-15T14:49:53.607Z,100544.75
2022-11-15T14:52:38.042Z,100543.00
2022-11-15T14:55:18.468Z,100547.34
2022-11-15T14:57:46.066Z,100537.16
2022-11-15T15:00:16.205Z,100535.47
2022-11-15T15:02:44.787Z,100535.09
2022-11-15T15:05:20.139Z,100535.84
2022-11-15T15:07:47.237Z,100531.00
2022-11-15T15:10:38.865Z,100532.66
2022-11-15T15:13:01.721Z,100520.75
2022-11-15T15:15:34.137Z,100521.25
2022-11-15T15:18:00.873Z,100527.56
2022-11-15T15:20:28.247Z,100529.72
2022-11-15T15:22:54.668Z,100521.88
2022-11-15T15:25:28.562Z,100517.00
2022-11-15T15:27:56.006Z,100514.59
2022-11-15T15:30:27.241Z,100514.94
2022-11-15T15:32:54.893Z,100508.72
2022-11-15T15:35:21.771Z,100509.69
2022-11-15T15:37:49.467Z,100513.81
2022-11-15T15:40:25.766Z,100518.47
2022-11-15T15:42:52.301Z,100522.28
2022-11-15T15:45:19.839Z,100515.41
2022-11-15T15:47:47.040Z,100512.78
2022-11-15T15:50:29.748Z,100514.88
2022-11-15T15:52:57.937Z,100500.84
2022-11-15T15:55:25.051Z,100490.69
2022-11-15T15:57:51.607Z,100489.63
2022-11-15T16:00:18.944Z,100490.69
2022-11-15T16:02:45.976Z,100495.47
2022-11-15T16:05:14.259Z,100484.91
2022-11-15T16:07:41.478Z,100489.56
2022-11-15T16:10:28.576Z,100483.41
2022-11-15T16:12:56.661Z,100488.03
2022-11-15T16:15:25.181Z,100491.94
2022-11-15T16:17:59.792Z,100478.22
2022-11-15T16:20:40.358Z,100476.69
2022-11-15T16:23:09.707Z,100475.50
2022-11-15T16:25:41.687Z,100464.03
2022-11-15T16:28:32.027Z,100459.34
2022-11-15T16:31:04.326Z,100449.84
2022-11-15T16:33:31.388Z,100449.25
2022-11-15T16:35:58.135Z,100450.00
2022-11-15T16:38:24.818Z,100453.78
2022-11-15T16:40:51.210Z,100447.09
2022-11-15T16:43:17.800Z,100445.13
2022-11-15T16:45:44.389Z,100436.00
2022-11-15T16:48:25.111Z,100439.16
2022-11-15T16:50:57.326Z,100438.03
2022-11-15T16:53:24.898Z,100439.81
2022-11-15T16:55:51.345Z,100432.75
2022-11-15T16:58:17.822Z,100437.41
2022-11-15T17:00:44.349Z,100430.34
2022-11-15T17:03:10.904Z,100437.72
2022-11-15T17:05:37.413Z,100443.34
2022-11-15T17:08:03.807Z,100439.91
2022-11-15T17:10:30.225Z,100424.16
2022-11-15T17:12:56.648Z,100437.06
2022-11-15T17:15:24.448Z,100437.44
2022-11-15T17:17:54.815Z,100430.47
2022-11-15T17:20:23.904Z,100430.69
2022-11-15T17:22:50.849Z,100430.31
2022-11-15T17:25:17.396Z,100422.53
2022-11-15T17:27:43.824Z,100428.09
2022-11-15T17:30:12.643Z,100422.91
2022-11-15T17:32:39.115Z,100424.56
2022-11-15T17:35:13.859Z,100424.56
2022-11-15T17:37:42.195Z,100426.69
2022-11-15T17:40:09.066Z,100426.97
2022-11-15T17:42:35.550Z,100422.59
2022-11-15T17:47:29.636Z,100402.66
2022-11-15T17:49:56.047Z,100412.88
2022-11-15T17:52:22.501Z,100407.84
2022-11-15T17:54:48.862Z,100393.28
2022-11-15T17:57:15.342Z,100396.22
2022-11-15T17:59:41.807Z,100398.38
2022-11-15T18:02:09.599Z,100384.16
2022-11-15T18:04:35.999Z,100393.09
2022-11-15T18:07:02.415Z,100389.31
2022-11-15T18:09:28.924Z,100384.66
2022-11-15T18:11:55.333Z,100381.09
2022-11-15T18:14:21.797Z,100388.59
2022-11-15T18:16:48.231Z,100381.47
2022-11-15T18:19:15.150Z,100375.16
2022-11-15T18:22:04.309Z,100380.38
2022-11-15T18:24:30.732Z,100380.38
2022-11-15T18:26:58.240Z,100385.75
2022-11-15T18:29:24.945Z,100381.84
2022-11-15T18:31:55.484Z,100384.06
2022-11-15T18:34:23.465Z,100380.38
2022-11-15T18:36:51.610Z,100373.25
2022-11-15T18:39:18.574Z,100375.84
2022-11-15T18:41:46.502Z,100373.16
2022-11-15T18:44:15.643Z,100362.88
2022-11-15T18:46:42.727Z,100363.19
2022-11-15T18:49:12.643Z,100359.34
2022-11-15T18:51:41.915Z,100357.09
2022-11-15T18:54:13.352Z,100356.97
2022-11-15T18:56:40.247Z,100357.31
2022-11-15T18:59:08.301Z,100354.34
2022-11-15T19:01:37.093Z,100352.63
2022-11-15T19:04:08.268Z,100347.47
2022-11-15T19:06:38.927Z,100351.28
2022-11-15T19:09:06.167Z,100343.69
2022-11-15T19:11:35.714Z,100343.31
2022-11-15T19:14:04.574Z,100348.78
2022-11-15T19:16:33.503Z,100345.16
2022-11-15T19:19:02.242Z,100347.31
2022-11-15T19:21:30.928Z,100341.56
2022-11-15T19:23:58.026Z,100354.94
2022-11-15T19:26:25.062Z,100345.28
2022-11-15T19:28:56.295Z,100341.56
2022-11-15T19:31:26.242Z,100346.00
2022-11-15T19:33:53.574Z,100338.19
2022-11-15T19:36:23.181Z,100339.59
2022-11-15T19:38:49.856Z,100333.47
2022-11-15T19:41:18.508Z,100337.56
2022-11-15T19:43:47.924Z,100334.22
2022-11-15T19:46:14.937Z,100316.97
2022-11-15T19:48:41.712Z,100329.41
2022-11-15T19:51:16.196Z,100334.28
2022-11-15T19:53:43.270Z,100333.72
2022-11-15T19:56:14.639Z,100338.03
2022-11-15T19:58:41.416Z,100327.59
2022-11-15T20:01:12.844Z,100329.63
2022-11-15T20:03:39.393Z,100324.91
2022-11-15T20:06:08.155Z,100325.41
2022-11-15T20:08:35.205Z,100329.22
2022-11-15T20:11:02.920Z,100324.69
2022-11-15T20:13:29.426Z,100325.50
2022-11-15T20:15:56.551Z,100321.88
2022-11-15T20:18:24.078Z,100311.50
2022-11-15T20:20:50.736Z,100314.47
2022-11-15T20:23:17.510Z,100319.47
2022-11-15T20:25:46.039Z,100313.06
2022-11-15T20:28:21.023Z,100309.34
2022-11-15T20:30:48.350Z,100304.63
2022-11-15T20:33:14.970Z,100301.47
2022-11-15T20:35:41.468Z,100288.09
2022-11-15T20:38:08.195Z,100303.63
2022-11-15T20:40:34.973Z,100297.41
2022-11-15T20:43:01.383Z,100300.16
2022-11-15T20:45:27.790Z,100295.75
2022-11-15T20:47:58.285Z,100291.63
2022-11-15T20:50:42.157Z,100282.75
2022-11-15T20:53:11.192Z,100281.63
2022-11-15T20:55:47.686Z,100297.78
2022-11-15T20:58:15.262Z,100288.09
2022-11-15T21:00:43.199Z,100284.03
2022-11-15T21:03:09.843Z,100286.41
2022-11-15T21:05:40.791Z,100280.13
2022-11-15T21:08:07.728Z,100281.78
2022-11-15T21:10:52.831Z,100277.16
2022-11-15T21:13:19.347Z,100270.28
2022-11-15T21:15:45.991Z,100271.88
2022-11-15T21:18:12.962Z,100265.41
2022-11-15T21:20:39.514Z,100262.13
2022-11-15T21:23:05.962Z,100265.84
2022-11-15T21:25:35.733Z,100260.06
2022-11-15T21:28:02.840Z,100266.56
2022-11-15T21:30:29.264Z,100263.16
2022-11-15T21:32:55.821Z,100261.19
2022-11-15T21:35:22.633Z,100246.72
2022-11-15T21:37:54.961Z,100252.66
2022-11-15T21:40:23.054Z,100244.69
2022-11-15T21:42:49.485Z,100243.31
2022-11-15T21:45:15.930Z,100246.75
2022-11-15T21:47:46.037Z,100238.13
2022-11-15T21:50:13.397Z,100239.59
2022-11-15T21:52:40.887Z,100234.84
2022-11-15T21:55:08.145Z,100239.88
2022-11-15T21:57:34.552Z,100238.00
2022-11-15T22:00:27.231Z,100227.81
2022-11-15T22:02:53.667Z,100229.84
2022-11-15T22:05:20.355Z,100225.78
2022-11-15T22:07:46.776Z,100224.09
2022-11-15T22:10:13.232Z,100229.13
2022-11-15T22:12:40.004Z,100220.22
2022-11-15T22:15:07.045Z,100220.97
2022-11-15T22:17:52.118Z,100217.91
2022-11-15T22:23:05.636Z,100224.28
2022-11-15T22:25:32.512Z,100215.69
2022-11-15T22:27:58.927Z,100208.38
2022-11-15T22:30:25.349Z,100207.13
2022-11-15T22:32:51.788Z,100209.59
2022-11-15T22:35:18.383Z,100209.91
2022-11-15T22:37:44.789Z,100201.97
2022-11-15T22:40:11.275Z,100199.47
2022-11-15T22:42:37.963Z,100199.19
2022-11-15T22:45:04.787Z,100190.38
2022-11-15T22:47:31.438Z,100194.84
2022-11-15T22:49:57.907Z,100197.63
2022-11-15T22:52:24.532Z,100192.25
2022-11-15T22:54:51.206Z,100199.78
2022-11-15T22:57:17.838Z,100193.56
2022-11-15T22:59:44.355Z,100188.91
2022-11-15T23:02:10.744Z,100189.00
2022-11-15T23:04:37.481Z,100186.66
2022-11-15T23:07:04.164Z,100180.91
2022-11-15T23:09:30.638Z,100163.13
2022-11-15T23:12:15.659Z,100181.06
2022-11-15T23:14:42.104Z,100176.91
2022-11-15T23:17:08.499Z,100172.28
2022-11-15T23:19:35.058Z,100181.56
2022-11-15T23:22:20.003Z,100176.03
2022-11-15T23:24:46.468Z,100172.47
2022-11-15T23:27:15.559Z,100174.59
2022-11-15T23:30:13.993Z,100176.13
2022-11-15T23:32:59.137Z,100169.13
2022-11-15T23:35:26.041Z,100167.44
2022-11-15T23:37:52.458Z,100166.19
2022-11-15T23:40:19.221Z,100158.25
2022-11-15T23:42:45.627Z,100155.28
2022-11-15T23:45:12.102Z,100156.34
2022-11-15T23:47:38.508Z,100151.31
2022-11-15T23:50:05.250Z,100138.44
2022-11-15T23:52:31.822Z,100138.84
2022-11-15T23:54:58.285Z,100144.50
2022-11-15T23:57:24.716Z,100134.03
2022-11-15T23:59:51.181Z,100133.03
